AAL1765 KDFW-KMCO
Flight info
| Callsign | AAL1765 |
|---|---|
| Flight time | 1h 54m |
| Altitude | 41000 |
| Route | FORCK3 FORCK HAWES WINAP ORRKK ARNNY DEEDA GRNCH5 |
| Aircraft | B772/H-SDE2E3FGHIJ5LORVWXY/LB1D1 |
Departure
| Time | 2026-05-05 00:20 |
|---|---|
| Airport | Dallas Fort Worth International Airport (KDFW) |
Arrival
| Time | 2026-05-05 02:14 |
|---|---|
| Airport | Orlando International Airport (KMCO) |
| Time | Latitude | Longitude | Altitude | Speed | Heading |
|---|---|---|---|---|---|
| 2026-05-05 00:07 | 32.90217 | -97.03595 | 602 ft | 0 kts | 325° |
| 2026-05-05 00:13 | 32.90215 | -97.03593 | 602 ft | 3 kts | 325° |
| 2026-05-05 00:13 | 32.90193 | -97.03577 | 602 ft | 4 kts | 334° |
| 2026-05-05 00:13 | 32.90171 | -97.03563 | 602 ft | 2 kts | 325° |
| 2026-05-05 00:13 | 32.90154 | -97.03552 | 602 ft | 4 kts | 354° |
| 2026-05-05 00:14 | 32.90129 | -97.03555 | 602 ft | 4 kts | 13° |
| 2026-05-05 00:14 | 32.90116 | -97.03558 | 602 ft | 0 kts | 11° |
| 2026-05-05 00:14 | 32.90133 | -97.03554 | 602 ft | 4 kts | 13° |
| 2026-05-05 00:14 | 32.90171 | -97.03540 | 602 ft | 11 kts | 19° |
| 2026-05-05 00:15 | 32.90238 | -97.03504 | 602 ft | 10 kts | 25° |
| 2026-05-05 00:15 | 32.90297 | -97.03471 | 602 ft | 9 kts | 28° |
| 2026-05-05 00:15 | 32.90339 | -97.03404 | 602 ft | 12 kts | 64° |
| 2026-05-05 00:15 | 32.90441 | -97.03318 | 601 ft | 27 kts | 8° |
| 2026-05-05 00:16 | 32.90626 | -97.03312 | 601 ft | 26 kts | 0° |
| 2026-05-05 00:16 | 32.90805 | -97.03311 | 601 ft | 25 kts | 0° |
| 2026-05-05 00:16 | 32.90972 | -97.03310 | 601 ft | 23 kts | 1° |
| 2026-05-05 00:16 | 32.91092 | -97.03274 | 601 ft | 15 kts | 0° |
| 2026-05-05 00:17 | 32.91230 | -97.03274 | 601 ft | 21 kts | 0° |
| 2026-05-05 00:17 | 32.91380 | -97.03273 | 601 ft | 22 kts | 0° |
| 2026-05-05 00:17 | 32.91517 | -97.03270 | 600 ft | 13 kts | 8° |
| 2026-05-05 00:17 | 32.91560 | -97.03193 | 594 ft | 14 kts | 88° |
| 2026-05-05 00:18 | 32.91559 | -97.03134 | 589 ft | 1 kts | 91° |
| 2026-05-05 00:18 | 32.91559 | -97.03124 | 588 ft | 0 kts | 91° |
| 2026-05-05 00:18 | 32.91559 | -97.03121 | 587 ft | 0 kts | 90° |
| 2026-05-05 00:18 | 32.91559 | -97.03117 | 587 ft | 2 kts | 90° |
| 2026-05-05 00:19 | 32.91558 | -97.03035 | 585 ft | 11 kts | 91° |
| 2026-05-05 00:19 | 32.91517 | -97.02990 | 587 ft | 0 kts | 182° |
| 2026-05-05 00:20 | 32.91358 | -97.02993 | 588 ft | 71 kts | 180° |
| 2026-05-05 00:20 | 32.90494 | -97.02995 | 583 ft | 173 kts | 180° |
| 2026-05-05 00:20 | 32.89135 | -97.03015 | 1547 ft | 175 kts | 181° |
| 2026-05-05 00:21 | 32.87990 | -97.03048 | 3593 ft | 167 kts | 184° |
| 2026-05-05 00:21 | 32.86763 | -97.03046 | 4698 ft | 191 kts | 184° |
| 2026-05-05 00:21 | 32.85320 | -97.03024 | 4951 ft | 224 kts | 184° |
| 2026-05-05 00:21 | 32.83657 | -97.03001 | 5503 ft | 246 kts | 184° |
| 2026-05-05 00:22 | 32.81877 | -97.02983 | 6860 ft | 264 kts | 185° |
| 2026-05-05 00:22 | 32.80013 | -97.02978 | 8318 ft | 277 kts | 185° |
| 2026-05-05 00:22 | 32.78046 | -97.02983 | 9952 ft | 287 kts | 185° |
| 2026-05-05 00:22 | 32.75993 | -97.02995 | 11248 ft | 307 kts | 186° |
| 2026-05-05 00:23 | 32.73739 | -97.02900 | 12012 ft | 346 kts | 174° |
| 2026-05-05 00:23 | 32.71411 | -97.01684 | 13154 ft | 379 kts | 146° |
| 2026-05-05 00:23 | 32.69685 | -96.99317 | 14522 ft | 395 kts | 119° |
| 2026-05-05 00:23 | 32.68715 | -96.96208 | 15836 ft | 402 kts | 105° |
| 2026-05-05 00:24 | 32.68136 | -96.92965 | 16899 ft | 411 kts | 91° |
| 2026-05-05 00:24 | 32.68467 | -96.89544 | 18068 ft | 414 kts | 73° |
| 2026-05-05 00:24 | 32.69121 | -96.86221 | 19031 ft | 427 kts | 75° |
| 2026-05-05 00:24 | 32.69597 | -96.82689 | 20064 ft | 439 kts | 79° |
| 2026-05-05 00:25 | 32.69930 | -96.79045 | 21072 ft | 449 kts | 78° |
| 2026-05-05 00:25 | 32.70509 | -96.75386 | 22038 ft | 455 kts | 70° |
| 2026-05-05 00:25 | 32.71319 | -96.71712 | 22987 ft | 463 kts | 68° |
| 2026-05-05 00:25 | 32.72210 | -96.68004 | 23865 ft | 472 kts | 67° |
| 2026-05-05 00:26 | 32.73108 | -96.64226 | 24679 ft | 479 kts | 68° |
| 2026-05-05 00:26 | 32.73984 | -96.60377 | 25523 ft | 486 kts | 68° |
| 2026-05-05 00:26 | 32.74839 | -96.56461 | 26316 ft | 493 kts | 69° |
| 2026-05-05 00:26 | 32.75685 | -96.52477 | 27096 ft | 500 kts | 69° |
| 2026-05-05 00:27 | 32.76530 | -96.48449 | 27838 ft | 507 kts | 69° |
| 2026-05-05 00:27 | 32.77386 | -96.44358 | 28527 ft | 513 kts | 69° |
| 2026-05-05 00:27 | 32.78255 | -96.40218 | 29182 ft | 520 kts | 69° |
| 2026-05-05 00:27 | 32.79138 | -96.36023 | 29818 ft | 526 kts | 69° |
| 2026-05-05 00:28 | 32.79990 | -96.31772 | 30385 ft | 534 kts | 72° |
| 2026-05-05 00:28 | 32.80599 | -96.27374 | 30923 ft | 542 kts | 76° |
| 2026-05-05 00:28 | 32.81031 | -96.22902 | 31456 ft | 549 kts | 78° |
| 2026-05-05 00:28 | 32.81405 | -96.18364 | 31935 ft | 554 kts | 78° |
| 2026-05-05 00:29 | 32.81788 | -96.13796 | 32424 ft | 558 kts | 77° |
| 2026-05-05 00:29 | 32.82211 | -96.09194 | 32890 ft | 561 kts | 77° |
| 2026-05-05 00:29 | 32.82671 | -96.04566 | 33355 ft | 565 kts | 76° |
| 2026-05-05 00:29 | 32.83152 | -95.99924 | 33800 ft | 568 kts | 76° |
| 2026-05-05 00:30 | 32.83640 | -95.95254 | 34186 ft | 571 kts | 76° |
| 2026-05-05 00:30 | 32.84125 | -95.90563 | 34558 ft | 573 kts | 76° |
| 2026-05-05 00:30 | 32.84605 | -95.85843 | 34928 ft | 575 kts | 76° |
| 2026-05-05 00:30 | 32.85082 | -95.81118 | 35298 ft | 576 kts | 76° |
| 2026-05-05 00:31 | 32.85557 | -95.76392 | 35778 ft | 575 kts | 76° |
| 2026-05-05 00:31 | 32.86029 | -95.71669 | 36308 ft | 573 kts | 76° |
| 2026-05-05 00:31 | 32.86492 | -95.67033 | 36796 ft | 571 kts | 76° |
| 2026-05-05 00:31 | 32.86966 | -95.62286 | 37262 ft | 570 kts | 76° |
| 2026-05-05 00:32 | 32.87431 | -95.57616 | 37747 ft | 568 kts | 76° |
| 2026-05-05 00:32 | 32.87887 | -95.53014 | 38204 ft | 567 kts | 76° |
| 2026-05-05 00:32 | 32.88347 | -95.48358 | 38608 ft | 566 kts | 76° |
| 2026-05-05 00:32 | 32.88805 | -95.43708 | 38945 ft | 566 kts | 76° |
| 2026-05-05 00:33 | 32.89260 | -95.39063 | 39269 ft | 566 kts | 77° |
| 2026-05-05 00:33 | 32.89715 | -95.34412 | 39513 ft | 568 kts | 77° |
| 2026-05-05 00:33 | 32.90174 | -95.29718 | 39566 ft | 574 kts | 77° |
| 2026-05-05 00:34 | 32.91098 | -95.20208 | 39693 ft | 583 kts | 77° |
| 2026-05-05 00:34 | 32.92021 | -95.10557 | 39889 ft | 589 kts | 77° |
| 2026-05-05 00:34 | 32.92481 | -95.05705 | 40062 ft | 589 kts | 77° |
| 2026-05-05 00:35 | 32.92932 | -95.00915 | 40284 ft | 588 kts | 77° |
| 2026-05-05 00:35 | 32.93392 | -94.96020 | 40517 ft | 587 kts | 77° |
| 2026-05-05 00:35 | 32.93839 | -94.91251 | 40718 ft | 587 kts | 77° |
| 2026-05-05 00:36 | 32.94746 | -94.81564 | 40840 ft | 590 kts | 77° |
| 2026-05-05 00:36 | 32.95645 | -94.71855 | 40846 ft | 588 kts | 77° |
| 2026-05-05 00:37 | 32.96532 | -94.62178 | 40854 ft | 587 kts | 77° |
| 2026-05-05 00:37 | 32.97411 | -94.52530 | 40860 ft | 586 kts | 77° |
| 2026-05-05 00:38 | 32.98285 | -94.42864 | 40872 ft | 587 kts | 77° |
| 2026-05-05 00:38 | 32.99151 | -94.33188 | 40869 ft | 588 kts | 77° |
| 2026-05-05 00:39 | 32.99884 | -94.23474 | 40861 ft | 593 kts | 83° |
| 2026-05-05 00:39 | 32.99748 | -94.13607 | 40882 ft | 598 kts | 88° |
| 2026-05-05 00:40 | 32.99318 | -94.03766 | 40875 ft | 599 kts | 88° |
| 2026-05-05 00:40 | 32.98997 | -93.93856 | 40877 ft | 599 kts | 86° |
| 2026-05-05 00:41 | 32.98784 | -93.83936 | 40877 ft | 599 kts | 86° |
| 2026-05-05 00:41 | 32.98586 | -93.73999 | 40889 ft | 599 kts | 86° |
| 2026-05-05 00:42 | 32.98363 | -93.64068 | 40888 ft | 600 kts | 86° |
| 2026-05-05 00:42 | 32.98121 | -93.54130 | 40893 ft | 600 kts | 86° |
| 2026-05-05 00:43 | 32.97870 | -93.44193 | 40893 ft | 600 kts | 86° |
| 2026-05-05 00:43 | 32.97612 | -93.34241 | 40889 ft | 600 kts | 86° |
| 2026-05-05 00:44 | 32.97350 | -93.24372 | 40885 ft | 600 kts | 86° |
| 2026-05-05 00:44 | 32.97078 | -93.14440 | 40893 ft | 600 kts | 86° |
| 2026-05-05 00:45 | 32.96799 | -93.04518 | 40893 ft | 600 kts | 86° |
| 2026-05-05 00:45 | 32.96512 | -92.94587 | 40904 ft | 599 kts | 86° |
| 2026-05-05 00:46 | 32.96213 | -92.84657 | 40909 ft | 599 kts | 87° |
| 2026-05-05 00:46 | 32.95551 | -92.74759 | 40917 ft | 601 kts | 91° |
| 2026-05-05 00:47 | 32.94687 | -92.64853 | 40910 ft | 602 kts | 91° |
| 2026-05-05 00:47 | 32.93960 | -92.56623 | 40917 ft | 601 kts | 91° |
| 2026-05-05 00:48 | 32.93118 | -92.46724 | 40919 ft | 601 kts | 91° |
| 2026-05-05 00:48 | 32.92291 | -92.36815 | 40922 ft | 601 kts | 91° |
| 2026-05-05 00:49 | 32.91460 | -92.26928 | 40919 ft | 600 kts | 91° |
| 2026-05-05 00:49 | 32.90616 | -92.17040 | 40927 ft | 600 kts | 91° |
| 2026-05-05 00:50 | 32.89760 | -92.07151 | 40923 ft | 600 kts | 91° |
| 2026-05-05 00:50 | 32.88899 | -91.97285 | 40932 ft | 600 kts | 91° |
| 2026-05-05 00:51 | 32.88036 | -91.87470 | 40930 ft | 599 kts | 91° |
| 2026-05-05 00:51 | 32.87161 | -91.77613 | 40931 ft | 599 kts | 91° |
| 2026-05-05 00:52 | 32.86276 | -91.67738 | 40932 ft | 599 kts | 91° |
| 2026-05-05 00:52 | 32.85386 | -91.57887 | 40939 ft | 599 kts | 91° |
| 2026-05-05 00:53 | 32.84487 | -91.48029 | 40946 ft | 599 kts | 91° |
| 2026-05-05 00:53 | 32.83582 | -91.38195 | 40941 ft | 598 kts | 91° |
| 2026-05-05 00:54 | 32.82670 | -91.28369 | 40933 ft | 598 kts | 91° |
| 2026-05-05 00:54 | 32.81750 | -91.18544 | 40934 ft | 597 kts | 91° |
| 2026-05-05 00:55 | 32.80824 | -91.08733 | 40938 ft | 597 kts | 91° |
| 2026-05-05 00:55 | 32.79892 | -90.98937 | 40953 ft | 596 kts | 91° |
| 2026-05-05 00:56 | 32.78952 | -90.89153 | 40963 ft | 596 kts | 91° |
| 2026-05-05 00:56 | 32.78006 | -90.79372 | 40970 ft | 595 kts | 91° |
| 2026-05-05 00:57 | 32.77052 | -90.69603 | 40963 ft | 595 kts | 91° |
| 2026-05-05 00:57 | 32.76093 | -90.59854 | 40965 ft | 594 kts | 91° |
| 2026-05-05 00:58 | 32.75127 | -90.50109 | 40961 ft | 593 kts | 91° |
| 2026-05-05 00:58 | 32.74161 | -90.40451 | 40958 ft | 593 kts | 91° |
| 2026-05-05 00:59 | 32.73182 | -90.30734 | 40963 ft | 592 kts | 91° |
| 2026-05-05 00:59 | 32.72197 | -90.21032 | 40959 ft | 592 kts | 91° |
| 2026-05-05 01:00 | 32.71204 | -90.11338 | 40959 ft | 591 kts | 91° |
| 2026-05-05 01:00 | 32.70205 | -90.01650 | 40957 ft | 591 kts | 91° |
| 2026-05-05 01:01 | 32.69200 | -89.91975 | 40945 ft | 590 kts | 91° |
| 2026-05-05 01:01 | 32.68188 | -89.82311 | 40930 ft | 590 kts | 91° |
| 2026-05-05 01:02 | 32.67169 | -89.72659 | 40918 ft | 589 kts | 91° |
| 2026-05-05 01:02 | 32.66145 | -89.63014 | 40904 ft | 589 kts | 91° |
| 2026-05-05 01:03 | 32.65114 | -89.53385 | 40884 ft | 588 kts | 91° |
| 2026-05-05 01:03 | 32.64076 | -89.43756 | 40885 ft | 588 kts | 91° |
| 2026-05-05 01:04 | 32.63096 | -89.34140 | 40907 ft | 585 kts | 88° |
| 2026-05-05 01:04 | 32.62209 | -89.19736 | 40940 ft | 582 kts | 86° |
| 2026-05-05 01:05 | 32.61672 | -89.10214 | 40944 ft | 582 kts | 87° |
| 2026-05-05 01:05 | 32.61085 | -89.00634 | 40932 ft | 582 kts | 87° |
| 2026-05-05 01:06 | 32.60471 | -88.91052 | 40952 ft | 582 kts | 87° |
| 2026-05-05 01:06 | 32.59849 | -88.81477 | 40963 ft | 582 kts | 87° |
| 2026-05-05 01:07 | 32.59224 | -88.71908 | 40983 ft | 582 kts | 87° |
| 2026-05-05 01:07 | 32.58595 | -88.62350 | 40995 ft | 581 kts | 87° |
| 2026-05-05 01:08 | 32.57958 | -88.52802 | 40992 ft | 581 kts | 87° |
| 2026-05-05 01:08 | 32.57314 | -88.43250 | 40995 ft | 581 kts | 87° |
| 2026-05-05 01:09 | 32.56663 | -88.33700 | 40996 ft | 581 kts | 87° |
| 2026-05-05 01:09 | 32.56005 | -88.24158 | 40999 ft | 581 kts | 87° |
| 2026-05-05 01:10 | 32.55343 | -88.14676 | 40992 ft | 581 kts | 87° |
| 2026-05-05 01:10 | 32.54672 | -88.05137 | 41001 ft | 580 kts | 88° |
| 2026-05-05 01:11 | 32.53911 | -87.95662 | 40967 ft | 572 kts | 91° |
| 2026-05-05 01:11 | 32.52272 | -87.86422 | 40992 ft | 576 kts | 98° |
| 2026-05-05 01:12 | 32.50350 | -87.77154 | 40990 ft | 582 kts | 98° |
| 2026-05-05 01:12 | 32.48442 | -87.67815 | 40977 ft | 586 kts | 98° |
| 2026-05-05 01:13 | 32.46550 | -87.58383 | 40982 ft | 590 kts | 98° |
| 2026-05-05 01:13 | 32.44651 | -87.48907 | 40958 ft | 592 kts | 98° |
| 2026-05-05 01:14 | 32.42732 | -87.39400 | 40970 ft | 593 kts | 98° |
| 2026-05-05 01:14 | 32.40800 | -87.29892 | 40970 ft | 594 kts | 98° |
| 2026-05-05 01:15 | 32.38865 | -87.20394 | 40985 ft | 594 kts | 98° |
| 2026-05-05 01:15 | 32.36936 | -87.10958 | 41003 ft | 593 kts | 98° |
| 2026-05-05 01:16 | 32.34955 | -87.01507 | 41009 ft | 593 kts | 101° |
| 2026-05-05 01:16 | 32.32096 | -86.92314 | 41006 ft | 598 kts | 111° |
| 2026-05-05 01:17 | 32.28611 | -86.83399 | 40989 ft | 597 kts | 112° |
| 2026-05-05 01:17 | 32.25116 | -86.74513 | 40964 ft | 596 kts | 111° |
| 2026-05-05 01:18 | 32.21675 | -86.65601 | 40963 ft | 595 kts | 111° |
| 2026-05-05 01:18 | 32.18270 | -86.56709 | 40994 ft | 594 kts | 111° |
| 2026-05-05 01:19 | 32.14859 | -86.47825 | 41006 ft | 594 kts | 111° |
| 2026-05-05 01:19 | 32.11435 | -86.38951 | 41006 ft | 594 kts | 111° |
| 2026-05-05 01:20 | 32.08005 | -86.30097 | 41002 ft | 593 kts | 112° |
| 2026-05-05 01:20 | 32.04574 | -86.21258 | 41019 ft | 593 kts | 112° |
| 2026-05-05 01:21 | 32.01134 | -86.12418 | 41024 ft | 593 kts | 112° |
| 2026-05-05 01:21 | 31.97695 | -86.03600 | 41040 ft | 592 kts | 112° |
| 2026-05-05 01:22 | 31.94256 | -85.94805 | 41035 ft | 591 kts | 112° |
| 2026-05-05 01:22 | 31.90812 | -85.86020 | 41036 ft | 591 kts | 112° |
| 2026-05-05 01:23 | 31.87366 | -85.77253 | 41035 ft | 590 kts | 112° |
| 2026-05-05 01:23 | 31.83914 | -85.68493 | 41032 ft | 590 kts | 112° |
| 2026-05-05 01:24 | 31.80459 | -85.59745 | 41033 ft | 589 kts | 113° |
| 2026-05-05 01:24 | 31.77000 | -85.51009 | 41028 ft | 588 kts | 113° |
| 2026-05-05 01:25 | 31.73572 | -85.42373 | 41033 ft | 587 kts | 113° |
| 2026-05-05 01:25 | 31.70112 | -85.33675 | 41038 ft | 586 kts | 113° |
| 2026-05-05 01:26 | 31.66653 | -85.25002 | 41047 ft | 586 kts | 113° |
| 2026-05-05 01:26 | 31.63192 | -85.16346 | 41047 ft | 585 kts | 114° |
| 2026-05-05 01:27 | 31.59736 | -85.07718 | 41052 ft | 584 kts | 114° |
| 2026-05-05 01:27 | 31.56312 | -84.99086 | 41047 ft | 583 kts | 111° |
| 2026-05-05 01:28 | 31.53482 | -84.90224 | 41062 ft | 580 kts | 106° |
| 2026-05-05 01:28 | 31.50918 | -84.81235 | 41053 ft | 580 kts | 106° |
| 2026-05-05 01:29 | 31.48277 | -84.72301 | 41057 ft | 580 kts | 107° |
| 2026-05-05 01:29 | 31.45548 | -84.63420 | 41054 ft | 579 kts | 108° |
| 2026-05-05 01:30 | 31.42812 | -84.54607 | 41056 ft | 579 kts | 108° |
| 2026-05-05 01:30 | 31.40064 | -84.45738 | 41055 ft | 578 kts | 108° |
| 2026-05-05 01:31 | 31.37322 | -84.36884 | 41055 ft | 578 kts | 108° |
| 2026-05-05 01:31 | 31.34576 | -84.28044 | 41054 ft | 578 kts | 108° |
| 2026-05-05 01:32 | 31.32293 | -84.20717 | 41068 ft | 577 kts | 109° |
| 2026-05-05 01:32 | 31.29539 | -84.11898 | 41051 ft | 577 kts | 109° |
| 2026-05-05 01:33 | 31.26776 | -84.03088 | 41047 ft | 576 kts | 109° |
| 2026-05-05 01:33 | 31.24007 | -83.94306 | 41068 ft | 576 kts | 109° |
| 2026-05-05 01:34 | 31.21234 | -83.85528 | 41068 ft | 575 kts | 109° |
| 2026-05-05 01:34 | 31.18457 | -83.76756 | 41071 ft | 575 kts | 109° |
| 2026-05-05 01:35 | 31.15684 | -83.68018 | 41059 ft | 574 kts | 109° |
| 2026-05-05 01:35 | 31.12920 | -83.59333 | 41061 ft | 574 kts | 110° |
| 2026-05-05 01:36 | 31.10136 | -83.50608 | 41061 ft | 573 kts | 110° |
| 2026-05-05 01:36 | 31.07344 | -83.41884 | 41045 ft | 573 kts | 110° |
| 2026-05-05 01:37 | 31.04553 | -83.33183 | 41038 ft | 573 kts | 110° |
| 2026-05-05 01:37 | 31.01754 | -83.24483 | 41039 ft | 572 kts | 110° |
| 2026-05-05 01:38 | 30.98951 | -83.15793 | 41031 ft | 572 kts | 110° |
| 2026-05-05 01:38 | 30.96145 | -83.07115 | 41042 ft | 572 kts | 110° |
| 2026-05-05 01:39 | 30.93357 | -82.98511 | 41047 ft | 571 kts | 110° |
| 2026-05-05 01:39 | 30.90513 | -82.89810 | 41064 ft | 569 kts | 114° |
| 2026-05-05 01:40 | 30.88627 | -82.85781 | 41074 ft | 566 kts | 128° |
| 2026-05-05 01:40 | 30.86068 | -82.82439 | 41059 ft | 557 kts | 145° |
| 2026-05-05 01:40 | 30.79899 | -82.77081 | 41073 ft | 553 kts | 148° |
| 2026-05-05 01:41 | 30.73726 | -82.71729 | 41090 ft | 555 kts | 147° |
| 2026-05-05 01:41 | 30.67634 | -82.66278 | 41092 ft | 546 kts | 147° |
| 2026-05-05 01:42 | 30.61676 | -82.60889 | 41111 ft | 541 kts | 147° |
| 2026-05-05 01:42 | 30.58826 | -82.58320 | 41117 ft | 542 kts | 147° |
| 2026-05-05 01:43 | 30.55591 | -82.55412 | 41129 ft | 542 kts | 147° |
| 2026-05-05 01:43 | 30.49618 | -82.50058 | 41123 ft | 543 kts | 147° |
| 2026-05-05 01:44 | 30.43636 | -82.44704 | 41112 ft | 544 kts | 147° |
| 2026-05-05 01:44 | 30.37662 | -82.39360 | 41071 ft | 534 kts | 147° |
| 2026-05-05 01:45 | 30.34757 | -82.36759 | 40845 ft | 524 kts | 147° |
| 2026-05-05 01:45 | 30.31879 | -82.34190 | 40364 ft | 521 kts | 148° |
| 2026-05-05 01:45 | 30.29007 | -82.31633 | 39730 ft | 522 kts | 148° |
| 2026-05-05 01:45 | 30.26122 | -82.29067 | 39069 ft | 524 kts | 147° |
| 2026-05-05 01:46 | 30.23235 | -82.26498 | 38377 ft | 525 kts | 147° |
| 2026-05-05 01:46 | 30.20224 | -82.24161 | 37510 ft | 517 kts | 159° |
| 2026-05-05 01:46 | 30.16968 | -82.22709 | 36023 ft | 491 kts | 175° |
| 2026-05-05 01:46 | 30.13540 | -82.22032 | 33942 ft | 515 kts | 180° |
| 2026-05-05 01:47 | 30.09939 | -82.21499 | 32818 ft | 521 kts | 180° |
| 2026-05-05 01:47 | 30.06346 | -82.20918 | 32424 ft | 510 kts | 179° |
| 2026-05-05 01:47 | 30.02935 | -82.20299 | 31890 ft | 504 kts | 179° |
| 2026-05-05 01:47 | 29.99484 | -82.19626 | 31073 ft | 503 kts | 178° |
| 2026-05-05 01:48 | 29.96036 | -82.18934 | 30201 ft | 503 kts | 178° |
| 2026-05-05 01:48 | 29.92600 | -82.18248 | 29374 ft | 499 kts | 178° |
| 2026-05-05 01:48 | 29.89196 | -82.17569 | 28699 ft | 492 kts | 177° |
| 2026-05-05 01:48 | 29.85846 | -82.16899 | 28054 ft | 485 kts | 177° |
| 2026-05-05 01:49 | 29.82544 | -82.16238 | 27397 ft | 479 kts | 177° |
| 2026-05-05 01:49 | 29.79267 | -82.15585 | 26715 ft | 475 kts | 176° |
| 2026-05-05 01:49 | 29.76033 | -82.14942 | 26043 ft | 471 kts | 176° |
| 2026-05-05 01:49 | 29.72808 | -82.14301 | 25402 ft | 467 kts | 176° |
| 2026-05-05 01:50 | 29.69620 | -82.13668 | 24784 ft | 462 kts | 176° |
| 2026-05-05 01:50 | 29.66462 | -82.13041 | 24179 ft | 458 kts | 175° |
| 2026-05-05 01:50 | 29.63335 | -82.12420 | 23579 ft | 454 kts | 175° |
| 2026-05-05 01:50 | 29.60237 | -82.11805 | 22913 ft | 449 kts | 175° |
| 2026-05-05 01:51 | 29.57194 | -82.11199 | 22667 ft | 436 kts | 175° |
| 2026-05-05 01:51 | 29.54255 | -82.10614 | 22405 ft | 424 kts | 175° |
| 2026-05-05 01:51 | 29.51375 | -82.10044 | 22085 ft | 415 kts | 175° |
| 2026-05-05 01:51 | 29.48584 | -82.09492 | 21659 ft | 411 kts | 175° |
| 2026-05-05 01:52 | 29.45777 | -82.08940 | 21165 ft | 408 kts | 175° |
| 2026-05-05 01:52 | 29.42986 | -82.08389 | 20736 ft | 404 kts | 175° |
| 2026-05-05 01:52 | 29.40237 | -82.07846 | 20323 ft | 400 kts | 175° |
| 2026-05-05 01:52 | 29.37497 | -82.07305 | 19846 ft | 398 kts | 174° |
| 2026-05-05 01:53 | 29.34777 | -82.06769 | 19408 ft | 396 kts | 174° |
| 2026-05-05 01:53 | 29.32080 | -82.06236 | 19001 ft | 392 kts | 174° |
| 2026-05-05 01:53 | 29.29465 | -82.05371 | 18518 ft | 391 kts | 158° |
| 2026-05-05 01:53 | 29.27074 | -82.03875 | 17884 ft | 393 kts | 153° |
| 2026-05-05 01:54 | 29.24710 | -82.02308 | 17414 ft | 391 kts | 153° |
| 2026-05-05 01:54 | 29.22363 | -82.00767 | 17045 ft | 386 kts | 153° |
| 2026-05-05 01:54 | 29.20037 | -81.99265 | 16676 ft | 382 kts | 153° |
| 2026-05-05 01:54 | 29.17729 | -81.97796 | 16380 ft | 376 kts | 153° |
| 2026-05-05 01:55 | 29.15460 | -81.96364 | 16172 ft | 368 kts | 153° |
| 2026-05-05 01:55 | 29.13233 | -81.94964 | 15900 ft | 363 kts | 153° |
| 2026-05-05 01:55 | 29.11026 | -81.93580 | 15546 ft | 360 kts | 153° |
| 2026-05-05 01:55 | 29.08834 | -81.92206 | 15176 ft | 359 kts | 153° |
| 2026-05-05 01:56 | 29.06678 | -81.90798 | 14798 ft | 354 kts | 148° |
| 2026-05-05 01:56 | 29.04664 | -81.89233 | 14806 ft | 349 kts | 147° |
| 2026-05-05 01:56 | 29.02694 | -81.87568 | 14764 ft | 354 kts | 140° |
| 2026-05-05 01:56 | 29.00969 | -81.85539 | 14345 ft | 357 kts | 131° |
| 2026-05-05 01:57 | 28.99391 | -81.83360 | 13952 ft | 353 kts | 130° |
| 2026-05-05 01:57 | 28.97834 | -81.81209 | 13458 ft | 352 kts | 130° |
| 2026-05-05 01:57 | 28.96334 | -81.79006 | 12980 ft | 350 kts | 128° |
| 2026-05-05 01:57 | 28.94874 | -81.76802 | 12533 ft | 347 kts | 128° |
| 2026-05-05 01:58 | 28.93421 | -81.74610 | 12113 ft | 344 kts | 128° |
| 2026-05-05 01:58 | 28.91969 | -81.72434 | 11619 ft | 344 kts | 128° |
| 2026-05-05 01:58 | 28.90535 | -81.70302 | 11153 ft | 343 kts | 129° |
| 2026-05-05 01:58 | 28.89066 | -81.68126 | 10732 ft | 340 kts | 129° |
| 2026-05-05 01:59 | 28.87627 | -81.65995 | 10298 ft | 338 kts | 129° |
| 2026-05-05 01:59 | 28.86195 | -81.63877 | 10046 ft | 340 kts | 129° |
| 2026-05-05 01:59 | 28.84753 | -81.61743 | 10010 ft | 337 kts | 129° |
| 2026-05-05 01:59 | 28.83324 | -81.59631 | 10002 ft | 336 kts | 129° |
| 2026-05-05 02:00 | 28.81909 | -81.57541 | 9998 ft | 337 kts | 129° |
| 2026-05-05 02:00 | 28.80460 | -81.55405 | 9998 ft | 335 kts | 130° |
| 2026-05-05 02:00 | 28.78808 | -81.53593 | 9990 ft | 333 kts | 146° |
| 2026-05-05 02:00 | 28.76870 | -81.52148 | 9998 ft | 334 kts | 153° |
| 2026-05-05 02:01 | 28.74760 | -81.50992 | 10012 ft | 338 kts | 158° |
| 2026-05-05 02:01 | 28.72608 | -81.49974 | 10010 ft | 333 kts | 159° |
| 2026-05-05 02:01 | 28.70472 | -81.48980 | 10010 ft | 331 kts | 159° |
| 2026-05-05 02:01 | 28.68352 | -81.47973 | 9837 ft | 329 kts | 159° |
| 2026-05-05 02:02 | 28.66255 | -81.46955 | 9502 ft | 323 kts | 158° |
| 2026-05-05 02:02 | 28.64237 | -81.45959 | 9400 ft | 310 kts | 158° |
| 2026-05-05 02:02 | 28.62296 | -81.44994 | 9253 ft | 299 kts | 158° |
| 2026-05-05 02:02 | 28.60414 | -81.44058 | 9030 ft | 292 kts | 158° |
| 2026-05-05 02:03 | 28.58563 | -81.43138 | 8725 ft | 289 kts | 158° |
| 2026-05-05 02:03 | 28.57348 | -81.42573 | 8459 ft | 282 kts | 164° |
| 2026-05-05 02:03 | 28.57160 | -81.42505 | 8412 ft | 281 kts | 167° |
| 2026-05-05 02:03 | 28.55236 | -81.42304 | 7850 ft | 279 kts | 183° |
| 2026-05-05 02:04 | 28.53290 | -81.42344 | 7524 ft | 277 kts | 183° |
| 2026-05-05 02:04 | 28.51439 | -81.42369 | 7468 ft | 256 kts | 182° |
| 2026-05-05 02:04 | 28.49659 | -81.42386 | 7184 ft | 255 kts | 182° |
| 2026-05-05 02:04 | 28.47893 | -81.42399 | 6900 ft | 253 kts | 182° |
| 2026-05-05 02:05 | 28.46127 | -81.42407 | 6624 ft | 252 kts | 182° |
| 2026-05-05 02:05 | 28.44380 | -81.42412 | 6324 ft | 251 kts | 182° |
| 2026-05-05 02:05 | 28.42634 | -81.42415 | 6034 ft | 250 kts | 182° |
| 2026-05-05 02:05 | 28.40895 | -81.42417 | 5751 ft | 249 kts | 182° |
| 2026-05-05 02:06 | 28.39167 | -81.42417 | 5489 ft | 248 kts | 181° |
| 2026-05-05 02:06 | 28.37449 | -81.42417 | 5214 ft | 245 kts | 181° |
| 2026-05-05 02:06 | 28.35806 | -81.42417 | 5086 ft | 228 kts | 181° |
| 2026-05-05 02:06 | 28.34258 | -81.42421 | 4966 ft | 221 kts | 182° |
| 2026-05-05 02:07 | 28.32720 | -81.42437 | 4935 ft | 221 kts | 181° |
| 2026-05-05 02:07 | 28.31170 | -81.42451 | 4941 ft | 226 kts | 181° |
| 2026-05-05 02:07 | 28.29564 | -81.42461 | 4952 ft | 231 kts | 181° |
| 2026-05-05 02:07 | 28.27961 | -81.42467 | 4949 ft | 230 kts | 181° |
| 2026-05-05 02:08 | 28.26362 | -81.42475 | 4943 ft | 229 kts | 181° |
| 2026-05-05 02:08 | 28.24763 | -81.42464 | 4920 ft | 225 kts | 178° |
| 2026-05-05 02:08 | 28.23341 | -81.41921 | 4232 ft | 215 kts | 140° |
| 2026-05-05 02:08 | 28.22578 | -81.40537 | 3439 ft | 205 kts | 103° |
| 2026-05-05 02:09 | 28.22496 | -81.38985 | 3444 ft | 208 kts | 86° |
| 2026-05-05 02:09 | 28.22912 | -81.37370 | 3277 ft | 214 kts | 64° |
| 2026-05-05 02:09 | 28.23859 | -81.36183 | 3095 ft | 197 kts | 38° |
| 2026-05-05 02:09 | 28.24976 | -81.35386 | 2939 ft | 188 kts | 34° |
| 2026-05-05 02:10 | 28.26095 | -81.34626 | 2791 ft | 182 kts | 35° |
| 2026-05-05 02:10 | 28.27168 | -81.33891 | 2660 ft | 175 kts | 35° |
| 2026-05-05 02:10 | 28.28160 | -81.33208 | 2530 ft | 160 kts | 36° |
| 2026-05-05 02:10 | 28.29099 | -81.32561 | 2416 ft | 158 kts | 33° |
| 2026-05-05 02:11 | 28.30190 | -81.32348 | 2219 ft | 167 kts | 359° |
| 2026-05-05 02:11 | 28.31284 | -81.32457 | 2050 ft | 152 kts | 5° |
| 2026-05-05 02:11 | 28.32302 | -81.32492 | 1847 ft | 138 kts | 6° |
| 2026-05-05 02:11 | 28.33232 | -81.32515 | 1723 ft | 132 kts | 5° |
| 2026-05-05 02:12 | 28.34149 | -81.32543 | 1584 ft | 130 kts | 5° |
| 2026-05-05 02:12 | 28.35957 | -81.32583 | 1227 ft | 131 kts | 5° |
| 2026-05-05 02:12 | 28.36853 | -81.32599 | 1066 ft | 126 kts | 6° |
| 2026-05-05 02:13 | 28.37747 | -81.32611 | 997 ft | 130 kts | 6° |
| 2026-05-05 02:13 | 28.38641 | -81.32628 | 836 ft | 130 kts | 4° |
| 2026-05-05 02:13 | 28.39536 | -81.32640 | 629 ft | 127 kts | 5° |
| 2026-05-05 02:13 | 28.40402 | -81.32665 | 400 ft | 123 kts | 4° |
| 2026-05-05 02:14 | 28.41227 | -81.32663 | 219 ft | 116 kts | 3° |
| 2026-05-05 02:14 | 28.41982 | -81.32664 | 112 ft | 98 kts | 359° |
| 2026-05-05 02:14 | 28.42547 | -81.32672 | 108 ft | 63 kts | 359° |
| 2026-05-05 02:14 | 28.42848 | -81.32676 | 109 ft | 16 kts | 359° |
| 2026-05-05 02:15 | 28.43005 | -81.32627 | 108 ft | 25 kts | 34° |
| 2026-05-05 02:15 | 28.43057 | -81.32492 | 110 ft | 14 kts | 89° |
| 2026-05-05 02:15 | 28.43058 | -81.32388 | 109 ft | 13 kts | 89° |
| 2026-05-05 02:15 | 28.43059 | -81.32331 | 108 ft | 0 kts | 89° |
| 2026-05-05 02:17 | 28.43059 | -81.32307 | 108 ft | 15 kts | 89° |
| 2026-05-05 02:17 | 28.43059 | -81.32135 | 105 ft | 28 kts | 89° |
| 2026-05-05 02:18 | 28.43064 | -81.32050 | 105 ft | 5 kts | 72° |
| 2026-05-05 02:18 | 28.43087 | -81.32023 | 107 ft | 12 kts | 40° |
| 2026-05-05 02:18 | 28.43167 | -81.31923 | 106 ft | 17 kts | 54° |
| 2026-05-05 02:18 | 28.43231 | -81.31818 | 108 ft | 16 kts | 55° |
| 2026-05-05 02:19 | 28.43286 | -81.31718 | 106 ft | 14 kts | 59° |
| 2026-05-05 02:19 | 28.43326 | -81.31644 | 105 ft | 9 kts | 54° |
| 2026-05-05 02:19 | 28.43343 | -81.31620 | 106 ft | 0 kts | 52° |